createdAt,value
2022-07-28T00:08:06.620Z,2.50
2022-07-28T00:22:06.601Z,2.40
2022-07-28T00:36:06.616Z,2.50
2022-07-28T00:50:06.617Z,2.40
2022-07-28T01:04:06.653Z,2.50
2022-07-28T01:18:06.692Z,2.30
2022-07-28T01:32:06.652Z,2.10
2022-07-28T01:46:06.662Z,2.00
2022-07-28T02:00:06.719Z,2.00
2022-07-28T02:14:06.764Z,2.10
2022-07-28T02:28:06.716Z,1.90
2022-07-28T02:42:06.700Z,1.80
2022-07-28T02:56:06.711Z,1.80
2022-07-28T03:10:06.715Z,1.80
2022-07-28T03:24:06.716Z,1.60
2022-07-28T03:38:06.783Z,1.60
2022-07-28T03:53:06.789Z,1.50
2022-07-28T04:08:06.802Z,1.50
2022-07-28T04:24:06.774Z,1.50
2022-07-28T04:39:06.780Z,1.40
2022-07-28T04:54:06.763Z,1.40
2022-07-28T05:09:06.784Z,1.70
2022-07-28T05:24:06.780Z,1.90
2022-07-28T05:39:06.781Z,2.00
2022-07-28T05:55:06.799Z,2.90
2022-07-28T06:10:06.805Z,2.70
2022-07-28T06:26:06.803Z,2.40
2022-07-28T06:41:06.808Z,2.80
2022-07-28T06:56:06.875Z,2.80
2022-07-28T07:11:06.879Z,2.90
2022-07-28T07:26:06.894Z,2.70
2022-07-28T07:41:06.894Z,3.00
2022-07-28T07:56:06.886Z,2.80
2022-07-28T08:11:06.898Z,2.80
2022-07-28T08:26:06.889Z,2.50
2022-07-28T08:41:06.902Z,2.80
2022-07-28T08:56:07.011Z,2.50
2022-07-28T09:12:07.066Z,2.60
2022-07-28T09:27:07.077Z,2.70
2022-07-28T09:42:07.090Z,2.60
2022-07-28T09:57:07.193Z,2.70
2022-07-28T10:12:07.115Z,2.80
2022-07-28T10:27:07.108Z,3.40
2022-07-28T10:43:07.136Z,3.50
2022-07-28T10:59:07.128Z,3.70
2022-07-28T11:15:15.977Z,3.60
2022-07-28T11:31:07.197Z,3.30
2022-07-28T11:46:07.690Z,3.40
2022-07-28T12:02:07.241Z,3.40
2022-07-28T12:18:07.197Z,3.10
2022-07-28T12:33:07.211Z,3.60
2022-07-28T12:49:07.312Z,4.20
2022-07-28T13:04:07.261Z,3.80
2022-07-28T13:19:07.295Z,3.90
2022-07-28T13:34:07.262Z,4.10
2022-07-28T13:49:07.295Z,4.90
2022-07-28T14:04:07.349Z,4.60
2022-07-28T14:19:07.389Z,4.80
2022-07-28T14:34:07.448Z,5.10
2022-07-28T14:49:07.632Z,5.20
2022-07-28T15:04:07.387Z,4.70
2022-07-28T15:19:07.398Z,4.10
2022-07-28T15:34:08.258Z,3.90
2022-07-28T15:49:07.456Z,4.20
2022-07-28T16:04:07.440Z,3.70
2022-07-28T16:19:15.885Z,3.60
2022-07-28T16:34:07.536Z,4.00
2022-07-28T16:49:07.605Z,3.80
2022-07-28T17:04:07.557Z,3.80
2022-07-28T17:19:07.534Z,3.90
2022-07-28T17:34:07.532Z,3.70
2022-07-28T17:49:07.585Z,3.50
2022-07-28T18:04:07.539Z,3.50
2022-07-28T18:19:07.615Z,3.80
2022-07-28T18:35:07.574Z,4.00
2022-07-28T18:50:07.605Z,3.90
2022-07-28T19:05:07.596Z,4.00
2022-07-28T19:20:07.627Z,4.30
2022-07-28T19:35:07.629Z,4.20
2022-07-28T19:49:07.723Z,4.10
2022-07-28T20:03:13.611Z,4.30
2022-07-28T20:17:07.676Z,4.30
2022-07-28T20:31:07.726Z,4.20
2022-07-28T20:45:07.653Z,4.10
2022-07-28T20:59:07.645Z,4.70
2022-07-28T21:13:07.661Z,5.50
2022-07-28T21:27:07.745Z,4.80
2022-07-28T21:41:07.749Z,4.30
2022-07-28T21:55:07.730Z,4.00
2022-07-28T22:09:07.780Z,3.90
2022-07-28T22:23:11.658Z,4.00
2022-07-28T22:37:12.729Z,3.80
2022-07-28T22:51:07.906Z,4.00
2022-07-28T22:53:27.237Z,3.90
2022-07-28T23:07:59.383Z,4.20
2022-07-28T23:21:59.489Z,4.00
2022-07-28T23:35:59.859Z,4.00
2022-07-28T23:49:59.835Z,4.00
